createdAt,value
2023-01-24T00:01:29.303Z,2.92
2023-01-24T00:03:57.162Z,2.91
2023-01-24T00:06:25.104Z,2.89
2023-01-24T00:08:52.886Z,2.91
2023-01-24T00:11:20.677Z,2.90
2023-01-24T00:13:48.640Z,2.88
2023-01-24T00:16:18.095Z,2.86
2023-01-24T00:18:48.652Z,2.87
2023-01-24T00:21:18.882Z,2.88
2023-01-24T00:23:48.627Z,2.88
2023-01-24T00:26:17.724Z,2.86
2023-01-24T00:28:47.686Z,2.87
2023-01-24T00:31:16.529Z,2.87
2023-01-24T00:33:44.617Z,2.82
2023-01-24T00:36:14.412Z,2.80
2023-01-24T00:38:42.355Z,2.80
2023-01-24T00:41:10.367Z,2.80
2023-01-24T00:43:38.266Z,2.81
2023-01-24T00:46:07.670Z,2.79
2023-01-24T00:48:35.919Z,2.80
2023-01-24T00:51:03.756Z,2.76
2023-01-24T00:53:33.052Z,2.73
2023-01-24T00:56:00.956Z,2.77
2023-01-24T00:58:28.796Z,2.75
2023-01-24T01:00:57.880Z,2.77
2023-01-24T01:03:25.896Z,2.78
2023-01-24T01:05:59.974Z,2.78
2023-01-24T01:08:27.885Z,2.81
2023-01-24T01:10:57.038Z,2.84
2023-01-24T01:13:25.283Z,2.84
2023-01-24T01:15:53.189Z,2.83
2023-01-24T01:18:21.024Z,2.77
2023-01-24T01:20:52.631Z,2.74
2023-01-24T01:23:20.468Z,2.75
2023-01-24T01:25:48.298Z,2.72
2023-01-24T01:28:17.528Z,2.70
2023-01-24T01:30:45.402Z,2.73
2023-01-24T01:33:14.290Z,2.73
2023-01-24T01:35:42.026Z,2.72
2023-01-24T01:38:09.798Z,2.69
2023-01-24T01:40:37.557Z,2.69
2023-01-24T01:43:05.353Z,2.66
2023-01-24T01:45:40.778Z,2.68
2023-01-24T01:48:20.750Z,2.69
2023-01-24T01:50:53.964Z,2.69
2023-01-24T01:53:23.955Z,2.73
2023-01-24T01:55:57.227Z,2.72
2023-01-24T01:58:25.288Z,2.70
2023-01-24T02:00:54.444Z,2.68
2023-01-24T02:03:41.876Z,2.70
2023-01-24T02:06:24.093Z,2.73
2023-01-24T02:08:53.485Z,2.72
2023-01-24T02:11:38.887Z,2.71
2023-01-24T02:14:26.694Z,2.74
2023-01-24T02:16:56.097Z,2.77
2023-01-24T02:19:49.465Z,2.75
2023-01-24T02:22:24.584Z,2.75
2023-01-24T02:25:02.899Z,2.75
2023-01-24T02:27:32.149Z,2.74
2023-01-24T02:30:00.520Z,2.74
2023-01-24T02:32:28.448Z,2.69
2023-01-24T02:34:56.901Z,2.70
2023-01-24T02:37:26.810Z,2.73
2023-01-24T02:39:59.824Z,2.70
2023-01-24T02:42:34.628Z,2.68
2023-01-24T02:45:10.580Z,2.66
2023-01-24T02:47:42.341Z,2.65
2023-01-24T02:50:11.375Z,2.64
2023-01-24T02:52:56.622Z,2.61
2023-01-24T02:55:26.063Z,2.56
2023-01-24T02:58:09.496Z,2.51
2023-01-24T03:00:40.832Z,2.51
2023-01-24T03:03:10.863Z,2.54
2023-01-24T03:05:57.561Z,2.54
2023-01-24T03:08:33.324Z,2.54
2023-01-24T03:11:03.548Z,2.52
2023-01-24T03:13:51.970Z,2.48
2023-01-24T03:16:37.762Z,2.46
2023-01-24T03:19:23.511Z,2.44
2023-01-24T03:22:09.037Z,2.45
2023-01-24T03:24:55.878Z,2.44
2023-01-24T03:27:40.990Z,2.45
2023-01-24T03:30:29.831Z,2.48
2023-01-24T03:33:19.404Z,2.48
2023-01-24T03:35:54.536Z,2.47
2023-01-24T03:38:42.997Z,2.47
2023-01-24T03:41:11.738Z,2.45
2023-01-24T03:43:41.106Z,2.41
2023-01-24T03:46:11.925Z,2.40
2023-01-24T03:48:47.773Z,2.40
2023-01-24T03:51:33.074Z,2.36
2023-01-24T03:54:01.417Z,2.27
2023-01-24T03:56:37.409Z,2.26
2023-01-24T03:59:06.333Z,2.25
2023-01-24T04:01:38.349Z,2.26
2023-01-24T04:04:21.163Z,2.30
2023-01-24T04:06:48.959Z,2.30
2023-01-24T04:09:17.378Z,2.27
2023-01-24T04:11:45.746Z,2.30
2023-01-24T04:14:18.716Z,2.31
2023-01-24T04:17:04.984Z,2.31
2023-01-24T04:19:41.197Z,2.37
2023-01-24T04:22:09.399Z,2.37
2023-01-24T04:24:39.717Z,2.32
2023-01-24T04:27:07.614Z,2.31
2023-01-24T04:29:56.078Z,2.29
2023-01-24T04:32:25.290Z,2.30
2023-01-24T04:35:00.591Z,2.30
2023-01-24T04:37:45.340Z,2.27
2023-01-24T04:40:15.821Z,2.26
2023-01-24T04:42:44.363Z,2.20
2023-01-24T04:45:13.249Z,2.20
2023-01-24T04:47:42.858Z,2.17
2023-01-24T04:50:12.014Z,2.16
2023-01-24T04:52:39.842Z,2.13
2023-01-24T04:55:10.998Z,2.09
2023-01-24T04:57:39.446Z,2.11
2023-01-24T05:00:10.408Z,2.09
2023-01-24T05:02:39.296Z,2.07
2023-01-24T05:05:10.440Z,2.04
2023-01-24T05:07:38.815Z,2.09
2023-01-24T05:10:12.517Z,2.13
2023-01-24T05:12:40.490Z,2.14
2023-01-24T05:15:15.209Z,2.18
2023-01-24T05:17:45.052Z,2.17
2023-01-24T05:20:18.595Z,2.14
2023-01-24T05:22:47.892Z,2.11
2023-01-24T05:25:16.777Z,2.11
2023-01-24T05:27:45.738Z,2.10
2023-01-24T05:30:15.702Z,2.06
2023-01-24T05:32:44.725Z,2.01
2023-01-24T05:35:12.550Z,2.00
2023-01-24T05:37:41.937Z,2.01
2023-01-24T05:40:12.314Z,2.03
2023-01-24T05:42:43.082Z,2.03
2023-01-24T05:45:13.072Z,2.00
2023-01-24T05:47:41.340Z,2.02
2023-01-24T05:50:12.388Z,2.03
2023-01-24T05:52:41.684Z,2.04
2023-01-24T05:55:09.934Z,1.96
2023-01-24T05:57:41.013Z,1.93
2023-01-24T06:00:31.450Z,1.93
2023-01-24T06:03:17.765Z,1.88
2023-01-24T06:05:50.390Z,1.91
2023-01-24T06:08:21.625Z,1.91
2023-01-24T06:10:50.341Z,1.89
2023-01-24T06:13:20.173Z,1.87
2023-01-24T06:15:48.043Z,1.92
2023-01-24T06:18:19.624Z,1.93
2023-01-24T06:20:51.141Z,1.83
2023-01-24T06:23:26.106Z,1.81
2023-01-24T06:25:58.288Z,1.83
2023-01-24T06:28:26.702Z,1.80
2023-01-24T06:31:03.846Z,1.79
2023-01-24T06:33:53.388Z,1.76
2023-01-24T06:36:32.431Z,1.77
2023-01-24T06:39:02.289Z,1.77
2023-01-24T06:41:30.493Z,1.74
2023-01-24T06:43:58.680Z,1.77
2023-01-24T06:46:26.691Z,1.74
2023-01-24T06:48:54.488Z,1.78
2023-01-24T06:51:22.291Z,1.83
2023-01-24T06:53:50.033Z,1.82
2023-01-24T06:56:19.156Z,1.86
2023-01-24T06:58:46.919Z,1.88
2023-01-24T07:01:14.828Z,1.83
2023-01-24T07:03:42.631Z,1.87
2023-01-24T07:06:10.451Z,1.86
2023-01-24T07:08:38.222Z,1.84
2023-01-24T07:11:06.131Z,1.87
2023-01-24T07:13:35.321Z,1.95
2023-01-24T07:16:03.731Z,1.95
2023-01-24T07:18:32.010Z,1.95
2023-01-24T07:21:00.351Z,1.94
2023-01-24T07:23:31.121Z,1.86
2023-01-24T07:25:59.429Z,1.84
2023-01-24T07:28:27.342Z,1.74
2023-01-24T07:30:57.302Z,1.74
2023-01-24T07:33:25.147Z,1.76
2023-01-24T07:35:52.923Z,1.75
2023-01-24T07:38:20.749Z,1.79
2023-01-24T07:40:48.553Z,1.81
2023-01-24T07:43:16.439Z,1.78
2023-01-24T07:45:47.243Z,1.73
2023-01-24T07:48:16.420Z,1.67
2023-01-24T07:50:44.218Z,1.63
2023-01-24T07:53:12.040Z,1.57
2023-01-24T07:55:40.333Z,1.58
2023-01-24T07:58:09.083Z,1.55
2023-01-24T08:00:36.961Z,1.51
2023-01-24T08:03:04.848Z,1.51
2023-01-24T08:05:33.991Z,1.51
2023-01-24T08:08:01.805Z,1.48
2023-01-24T08:10:30.233Z,1.50
2023-01-24T08:12:58.595Z,1.53
2023-01-24T08:15:26.536Z,1.52
2023-01-24T08:17:54.740Z,1.53
2023-01-24T08:20:22.901Z,1.52
2023-01-24T08:22:58.033Z,1.50
2023-01-24T08:25:26.857Z,1.54
2023-01-24T08:27:55.068Z,1.58
2023-01-24T08:30:23.082Z,1.54
2023-01-24T08:32:51.127Z,1.57
2023-01-24T08:35:19.037Z,1.58
2023-01-24T08:37:46.820Z,1.62
2023-01-24T08:40:16.148Z,1.63
2023-01-24T08:42:44.008Z,1.68
2023-01-24T08:45:11.914Z,1.68
2023-01-24T08:47:39.686Z,1.69
2023-01-24T08:50:08.981Z,1.73
2023-01-24T08:52:36.837Z,1.72
2023-01-24T08:55:04.703Z,1.80
2023-01-24T08:57:33.838Z,1.84
2023-01-24T09:00:01.647Z,1.80
2023-01-24T09:02:30.148Z,1.80
2023-01-24T09:04:58.000Z,1.85
2023-01-24T09:07:26.223Z,1.84
2023-01-24T09:09:54.039Z,1.82
2023-01-24T09:12:21.799Z,1.89
2023-01-24T09:14:50.944Z,1.95
2023-01-24T09:17:18.741Z,1.94
2023-01-24T09:19:46.576Z,1.97
2023-01-24T09:22:14.396Z,1.96
2023-01-24T09:24:42.166Z,1.98
2023-01-24T09:27:12.013Z,1.99
2023-01-24T09:29:39.822Z,2.02
2023-01-24T09:32:09.245Z,2.09
2023-01-24T09:34:37.057Z,2.09
2023-01-24T09:37:05.008Z,2.03
2023-01-24T09:39:32.805Z,1.97
2023-01-24T09:42:11.479Z,1.99
2023-01-24T09:44:45.208Z,2.01
2023-01-24T09:47:26.229Z,2.10
2023-01-24T09:49:57.813Z,2.19
2023-01-24T09:52:35.440Z,2.17
2023-01-24T09:55:07.752Z,2.19
2023-01-24T09:57:47.276Z,2.22
2023-01-24T10:00:20.621Z,2.25
2023-01-24T10:02:50.186Z,2.25
2023-01-24T10:05:21.064Z,2.24
2023-01-24T10:08:12.196Z,2.22
2023-01-24T10:10:46.931Z,2.21
2023-01-24T10:13:28.961Z,2.20
2023-01-24T10:16:05.203Z,2.25
2023-01-24T10:18:47.463Z,2.25
2023-01-24T10:21:51.880Z,2.26
2023-01-24T10:24:25.251Z,2.29
2023-01-24T10:26:54.097Z,2.24
2023-01-24T10:29:24.285Z,2.29
2023-01-24T10:31:58.788Z,2.35
2023-01-24T10:34:35.123Z,2.31
2023-01-24T10:37:06.607Z,2.31
2023-01-24T10:39:34.545Z,2.21
2023-01-24T10:42:04.655Z,2.16
2023-01-24T10:44:38.383Z,2.14
2023-01-24T10:47:27.612Z,2.12
2023-01-24T10:50:00.680Z,2.13
2023-01-24T10:52:29.176Z,2.09
2023-01-24T10:54:58.807Z,2.16
2023-01-24T10:57:38.762Z,2.16
2023-01-24T11:00:31.446Z,2.20
2023-01-24T11:03:01.014Z,2.21
2023-01-24T11:05:43.122Z,2.27
2023-01-24T11:08:20.031Z,2.34
2023-01-24T11:10:48.371Z,2.32
2023-01-24T11:13:37.975Z,2.34
2023-01-24T11:16:08.458Z,2.32
2023-01-24T11:18:38.148Z,2.36
2023-01-24T11:21:13.847Z,2.28
2023-01-24T11:23:42.634Z,2.25
2023-01-24T11:26:23.422Z,2.22
2023-01-24T11:28:59.706Z,2.29
2023-01-24T11:31:33.505Z,2.30
2023-01-24T11:34:24.049Z,2.27
2023-01-24T11:37:05.672Z,2.20
2023-01-24T11:39:43.865Z,2.18
2023-01-24T11:42:19.147Z,2.26
2023-01-24T11:45:09.697Z,2.23
2023-01-24T11:47:45.788Z,2.30
2023-01-24T11:50:34.276Z,2.38
2023-01-24T11:53:21.195Z,2.46
2023-01-24T11:55:56.725Z,2.49
2023-01-24T11:58:46.015Z,2.52
2023-01-24T12:01:23.644Z,2.53
2023-01-24T12:04:31.570Z,2.57
2023-01-24T12:07:08.276Z,2.56
2023-01-24T12:09:45.249Z,2.50
2023-01-24T12:12:19.383Z,2.54
2023-01-24T12:15:14.914Z,2.60
2023-01-24T12:18:24.779Z,2.69
2023-01-24T12:21:01.154Z,2.74
2023-01-24T12:23:37.825Z,2.83
2023-01-24T12:26:15.474Z,2.80
2023-01-24T12:28:51.687Z,2.74
2023-01-24T12:31:30.015Z,2.70
2023-01-24T12:34:03.546Z,2.69
2023-01-24T12:36:38.210Z,2.76
2023-01-24T12:39:15.984Z,2.80
2023-01-24T12:41:51.257Z,2.81
2023-01-24T12:44:29.947Z,2.82
2023-01-24T12:47:18.617Z,2.73
2023-01-24T12:49:55.282Z,2.83
2023-01-24T12:52:29.842Z,2.82
2023-01-24T12:55:03.799Z,2.86
2023-01-24T12:57:39.941Z,2.83
2023-01-24T13:00:17.606Z,2.91
2023-01-24T13:03:11.419Z,2.92
2023-01-24T13:05:49.614Z,2.87
2023-01-24T13:08:30.559Z,2.95
2023-01-24T13:11:16.856Z,2.99
2023-01-24T13:13:53.057Z,2.82
2023-01-24T13:16:37.550Z,2.81
2023-01-24T13:19:19.298Z,2.89
2023-01-24T13:21:54.215Z,2.83
2023-01-24T13:24:35.860Z,2.87
2023-01-24T13:27:18.564Z,2.86
2023-01-24T13:30:14.302Z,2.89
2023-01-24T13:32:42.634Z,2.92
2023-01-24T13:35:17.897Z,2.98
2023-01-24T13:37:52.588Z,2.90
2023-01-24T13:40:26.135Z,2.94
2023-01-24T13:42:54.341Z,3.01
2023-01-24T13:45:51.975Z,3.03
2023-01-24T13:48:46.249Z,2.95
2023-01-24T13:51:45.829Z,2.89
2023-01-24T13:54:35.466Z,2.86
2023-01-24T13:57:21.250Z,2.81
2023-01-24T14:00:03.713Z,2.82
2023-01-24T14:02:44.224Z,2.74
2023-01-24T14:05:44.085Z,2.66
2023-01-24T14:08:35.762Z,2.63
2023-01-24T14:11:39.954Z,2.62
2023-01-24T14:14:36.863Z,2.66
2023-01-24T14:17:44.313Z,2.62
2023-01-24T14:20:23.880Z,2.57
2023-01-24T14:22:56.007Z,2.49
2023-01-24T14:25:50.424Z,2.51
2023-01-24T14:28:27.906Z,2.50
2023-01-24T14:30:59.425Z,2.44
2023-01-24T14:33:35.955Z,2.48
2023-01-24T14:36:18.110Z,2.47
2023-01-24T14:38:45.879Z,2.47
2023-01-24T14:41:22.703Z,2.44
2023-01-24T14:43:51.875Z,2.48
2023-01-24T14:46:24.512Z,2.44
2023-01-24T14:48:52.727Z,2.44
2023-01-24T14:51:25.892Z,2.44
2023-01-24T14:53:55.179Z,2.43
2023-01-24T14:56:23.501Z,2.37
2023-01-24T14:58:53.872Z,2.39
2023-01-24T15:01:27.528Z,2.38
2023-01-24T15:03:57.469Z,2.41
2023-01-24T15:06:28.784Z,2.42
2023-01-24T15:08:57.046Z,2.43
2023-01-24T15:11:30.257Z,2.50
2023-01-24T15:14:01.894Z,2.53
2023-01-24T15:16:37.098Z,2.48
2023-01-24T15:19:08.050Z,2.38
2023-01-24T15:21:40.561Z,2.32
2023-01-24T15:24:21.720Z,2.29
2023-01-24T15:26:49.980Z,2.29
2023-01-24T15:29:51.414Z,2.15
2023-01-24T15:32:31.198Z,2.16
2023-01-24T15:35:41.433Z,2.26
2023-01-24T15:38:27.587Z,2.23
2023-01-24T15:40:59.189Z,2.28
2023-01-24T15:43:48.632Z,2.32
2023-01-24T15:46:37.857Z,2.30
2023-01-24T15:49:32.079Z,2.27
2023-01-24T15:52:06.918Z,2.29
2023-01-24T15:54:37.083Z,2.27
2023-01-24T15:57:07.906Z,2.21
2023-01-24T15:59:36.614Z,2.19
2023-01-24T16:02:04.394Z,2.17
2023-01-24T16:04:33.703Z,2.15
2023-01-24T16:07:01.475Z,2.15
2023-01-24T16:09:29.257Z,2.16
2023-01-24T16:12:01.226Z,2.20
2023-01-24T16:14:30.123Z,2.21
2023-01-24T16:17:02.825Z,2.16
2023-01-24T16:19:30.669Z,2.18
2023-01-24T16:21:58.778Z,2.14
2023-01-24T16:24:26.780Z,2.14
2023-01-24T16:26:56.055Z,2.05
2023-01-24T16:29:28.983Z,2.06
2023-01-24T16:31:57.116Z,2.05
2023-01-24T16:34:25.480Z,2.06
2023-01-24T16:36:53.288Z,1.99
2023-01-24T16:39:22.882Z,2.00
2023-01-24T16:41:52.481Z,1.99
2023-01-24T16:44:20.455Z,1.94
2023-01-24T16:46:51.800Z,1.91
2023-01-24T16:49:19.886Z,1.92
2023-01-24T16:51:48.473Z,1.81
2023-01-24T16:54:16.598Z,1.74
2023-01-24T16:56:46.037Z,1.78
2023-01-24T16:59:14.020Z,1.73
2023-01-24T17:01:42.309Z,1.73
2023-01-24T17:04:12.524Z,1.74
2023-01-24T17:06:40.325Z,1.75
2023-01-24T17:09:09.611Z,1.73
2023-01-24T17:11:37.479Z,1.73
2023-01-24T17:14:05.263Z,1.81
2023-01-24T17:16:33.056Z,1.85
2023-01-24T17:19:02.677Z,1.85
2023-01-24T17:21:31.903Z,1.87
2023-01-24T17:23:59.721Z,1.91
2023-01-24T17:26:27.502Z,1.88
2023-01-24T17:28:55.419Z,1.84
2023-01-24T17:31:23.275Z,1.83
2023-01-24T17:33:51.551Z,1.84
2023-01-24T17:36:19.549Z,1.81
2023-01-24T17:38:49.055Z,1.74
2023-01-24T17:41:18.469Z,1.69
2023-01-24T17:43:52.887Z,1.59
2023-01-24T17:46:21.497Z,1.64
2023-01-24T17:48:49.355Z,1.63
2023-01-24T17:51:18.781Z,1.65
2023-01-24T17:53:48.781Z,1.65
2023-01-24T17:56:18.466Z,1.67
2023-01-24T17:58:46.708Z,1.66
2023-01-24T18:01:15.718Z,1.68
2023-01-24T18:03:45.794Z,1.66
2023-01-24T18:06:14.380Z,1.62
2023-01-24T18:08:42.303Z,1.64
2023-01-24T18:11:13.565Z,1.60
2023-01-24T18:13:42.301Z,1.53
2023-01-24T18:16:12.969Z,1.52
2023-01-24T18:18:41.735Z,1.55
2023-01-24T18:21:10.996Z,1.53
2023-01-24T18:23:39.216Z,1.45
2023-01-24T18:26:08.065Z,1.45
2023-01-24T18:28:37.948Z,1.40
2023-01-24T18:31:10.857Z,1.35
2023-01-24T18:33:39.712Z,1.30
2023-01-24T18:36:09.312Z,1.38
2023-01-24T18:38:37.256Z,1.37
2023-01-24T18:41:06.169Z,1.29
2023-01-24T18:43:34.280Z,1.29
2023-01-24T18:46:08.938Z,1.26
2023-01-24T18:48:38.761Z,1.11
2023-01-24T18:51:07.474Z,1.10
2023-01-24T18:53:35.498Z,1.18
2023-01-24T18:56:06.276Z,1.18
2023-01-24T18:58:36.046Z,1.21
2023-01-24T19:01:12.831Z,1.19
2023-01-24T19:03:41.032Z,1.17
2023-01-24T19:06:09.575Z,1.23
2023-01-24T19:08:48.641Z,1.29
2023-01-24T19:11:25.144Z,1.30
2023-01-24T19:13:53.974Z,1.21
2023-01-24T19:16:23.913Z,1.14
2023-01-24T19:18:52.734Z,1.13
2023-01-24T19:21:21.628Z,1.17
2023-01-24T19:23:50.906Z,1.21
2023-01-24T19:26:19.740Z,1.22
2023-01-24T19:28:47.817Z,1.26
2023-01-24T19:31:15.751Z,1.26
2023-01-24T19:33:44.974Z,1.32
2023-01-24T19:36:12.747Z,1.28
2023-01-24T19:38:40.610Z,1.30
2023-01-24T19:41:09.870Z,1.31
2023-01-24T19:43:39.727Z,1.32
2023-01-24T19:46:12.019Z,1.37
2023-01-24T19:48:40.950Z,1.31
2023-01-24T19:51:12.292Z,1.31
2023-01-24T19:53:40.322Z,1.31
2023-01-24T19:56:10.981Z,1.39
2023-01-24T19:58:39.157Z,1.43
2023-01-24T20:01:07.709Z,1.41
2023-01-24T20:03:37.413Z,1.42
2023-01-24T20:06:12.822Z,1.40
2023-01-24T20:08:44.874Z,1.35
2023-01-24T20:11:13.128Z,1.36
2023-01-24T20:13:41.463Z,1.39
2023-01-24T20:16:14.690Z,1.40
2023-01-24T20:18:42.670Z,1.37
2023-01-24T20:21:13.372Z,1.31
2023-01-24T20:23:41.220Z,1.19
2023-01-24T20:26:11.634Z,1.26
2023-01-24T20:28:40.770Z,1.26
2023-01-24T20:31:11.637Z,1.14
2023-01-24T20:33:40.039Z,1.15
2023-01-24T20:36:10.188Z,1.14
2023-01-24T20:38:40.284Z,1.18
2023-01-24T20:41:10.424Z,1.24
2023-01-24T20:43:39.052Z,1.26
2023-01-24T20:46:08.804Z,1.20
2023-01-24T20:48:38.378Z,1.14
2023-01-24T20:51:08.006Z,1.14
2023-01-24T20:53:36.277Z,1.18
2023-01-24T20:56:07.330Z,1.13
2023-01-24T20:58:35.914Z,1.16
2023-01-24T21:01:05.060Z,1.14
2023-01-24T21:03:33.085Z,1.15
2023-01-24T21:06:05.076Z,1.13
2023-01-24T21:08:34.430Z,1.13
2023-01-24T21:11:03.056Z,1.16
2023-01-24T21:13:40.858Z,1.12
2023-01-24T21:16:10.147Z,1.12
2023-01-24T21:18:38.092Z,1.17
2023-01-24T21:21:06.464Z,1.24
2023-01-24T21:23:34.321Z,1.21
2023-01-24T21:26:05.740Z,1.16
2023-01-24T21:28:35.616Z,1.09
2023-01-24T21:31:05.228Z,1.09
2023-01-24T21:33:33.362Z,1.02
2023-01-24T21:36:02.069Z,1.03
2023-01-24T21:38:30.665Z,1.10
2023-01-24T21:41:19.746Z,1.10
2023-01-24T21:43:48.944Z,1.07
2023-01-24T21:46:17.489Z,1.03
2023-01-24T21:49:03.626Z,1.01
2023-01-24T21:51:32.253Z,0.98
2023-01-24T21:54:07.361Z,1.04
2023-01-24T21:56:55.524Z,1.05
2023-01-24T21:59:26.707Z,1.11
2023-01-24T22:01:57.529Z,1.16
2023-01-24T22:04:26.754Z,1.18
2023-01-24T22:06:55.357Z,1.15
2023-01-24T22:09:23.460Z,1.10
2023-01-24T22:11:54.270Z,1.10
2023-01-24T22:14:27.191Z,1.15
2023-01-24T22:16:57.500Z,1.10
2023-01-24T22:19:27.738Z,1.15
2023-01-24T22:22:16.803Z,1.13
2023-01-24T22:24:59.224Z,1.10
2023-01-24T22:27:27.649Z,1.02
2023-01-24T22:29:57.663Z,1.08
2023-01-24T22:32:26.188Z,1.05
2023-01-24T22:34:57.603Z,1.05
2023-01-24T22:37:28.611Z,1.03
2023-01-24T22:39:56.816Z,1.11
2023-01-24T22:42:25.240Z,1.12
2023-01-24T22:44:53.661Z,1.07
2023-01-24T22:47:22.943Z,1.04
2023-01-24T22:49:50.813Z,1.04
2023-01-24T22:52:18.630Z,1.03
2023-01-24T22:54:46.377Z,1.07
2023-01-24T22:57:14.224Z,1.00
2023-01-24T22:59:42.003Z,0.88
2023-01-24T23:02:09.909Z,0.82
2023-01-24T23:04:39.600Z,0.74
2023-01-24T23:07:07.771Z,0.75
2023-01-24T23:09:35.710Z,0.88
2023-01-24T23:12:03.527Z,0.86
2023-01-24T23:14:48.745Z,0.71
2023-01-24T23:17:18.501Z,0.74
2023-01-24T23:20:06.130Z,0.80
2023-01-24T23:22:35.813Z,0.85
2023-01-24T23:25:05.954Z,0.89
2023-01-24T23:27:36.447Z,0.68
2023-01-24T23:30:45.582Z,0.58
2023-01-24T23:33:35.213Z,0.46
2023-01-24T23:36:04.466Z,0.52
2023-01-24T23:38:32.313Z,0.56
2023-01-24T23:41:00.239Z,0.57
2023-01-24T23:43:28.033Z,0.51
2023-01-24T23:45:55.893Z,0.38
2023-01-24T23:48:23.860Z,0.40
2023-01-24T23:50:56.049Z,0.43
2023-01-24T23:53:25.463Z,0.33
2023-01-24T23:55:53.306Z,0.43
2023-01-24T23:58:21.484Z,0.47
